Time,TemperatureF,DewpointF,PressureIn,WindDirection,WindDirectionDegrees,WindSpeedMPH,WindSpeedGustMPH,Humidity,HourlyPrecipIn,Conditions,Clouds,dailyrainin,SoftwareType,DateUTC
2013-02-21 00:00:00,68.1,68.1,29.71,ESE,117,11.3,19.6,100,0.00,CLR,,0.00,WeatherDisplay:10.37,2013-02-21 06:00:00,
2013-02-21 00:06:00,68.0,68.0,29.71,South,181,12.0,17.3,100,0.00,CLR,,0.00,WeatherDisplay:10.37,2013-02-21 06:06:00,
2013-02-21 00:11:00,68.1,68.1,29.71,SE,128,11.2,17.4,100,0.00,CLR,,0.00,WeatherDisplay:10.37,2013-02-21 06:11:00,
2013-02-21 00:16:00,68.2,68.2,29.71,ESE,116,13.2,19.6,100,0.00,CLR,,0.00,WeatherDisplay:10.37,2013-02-21 06:16:00,
2013-02-21 00:21:00,68.2,68.2,29.70,East,96,12.2,19.6,100,0.00,CLR,,0.00,WeatherDisplay:10.37,2013-02-21 06:21:00,
2013-02-21 00:26:00,68.2,68.2,29.71,SE,126,10.6,18.4,100,0.00,CLR,,0.00,WeatherDisplay:10.37,2013-02-21 06:26:00,
2013-02-21 00:31:00,68.3,68.3,29.71,ESE,117,7.8,16.1,100,0.00,CLR,,0.00,WeatherDisplay:10.37,2013-02-21 06:31:00,
2013-02-21 00:36:00,68.3,68.3,29.71,SSE,147,9.8,15.5,100,0.00,CLR,,0.00,WeatherDisplay:10.37,2013-02-21 06:36:00,
2013-02-21 00:41:00,68.3,68.3,29.70,SE,131,11.0,16.7,100,0.00,CLR,,0.00,WeatherDisplay:10.37,2013-02-21 06:41:00,
2013-02-21 00:46:00,68.3,68.3,29.70,South,176,10.4,16.1,100,0.00,CLR,,0.00,WeatherDisplay:10.37,2013-02-21 06:46:00,
2013-02-21 00:51:00,68.3,68.3,29.70,ESE,112,10.2,22.4,100,0.00,CLR,,0.00,WeatherDisplay:10.37,2013-02-21 06:51:00,
2013-02-21 00:56:00,68.3,68.3,29.70,SSE,158,10.7,17.3,100,0.00,CLR,,0.00,WeatherDisplay:10.37,2013-02-21 06:56:00,
2013-02-21 01:01:00,68.3,68.3,29.70,SSE,151,10.6,20.7,100,0.00,CLR,,0.00,WeatherDisplay:10.37,2013-02-21 07:01:00,
2013-02-21 01:06:00,68.2,68.2,29.70,ESE,117,10.0,20.7,100,0.00,CLR,,0.00,WeatherDisplay:10.37,2013-02-21 07:06:00,
2013-02-21 01:11:00,68.3,68.3,29.70,East,92,10.5,19.6,100,0.00,CLR,,0.00,WeatherDisplay:10.37,2013-02-21 07:11:00,
2013-02-21 01:16:00,68.4,68.4,29.69,ESE,117,9.3,20.7,100,0.00,CLR,,0.00,WeatherDisplay:10.37,2013-02-21 07:16:00,
2013-02-21 01:21:00,68.4,68.4,29.69,ESE,110,11.3,18.4,100,0.00,CLR,,0.00,WeatherDisplay:10.37,2013-02-21 07:21:00,
2013-02-21 01:26:00,68.3,68.3,29.69,ESE,117,10.3,17.3,100,0.00,CLR,,0.00,WeatherDisplay:10.37,2013-02-21 07:26:00,
2013-02-21 01:31:00,68.3,68.3,29.69,ESE,103,10.3,20.6,100,0.00,CLR,,0.00,WeatherDisplay:10.37,2013-02-21 07:31:00,
2013-02-21 01:36:00,68.3,68.3,29.69,SE,131,10.7,16.1,100,0.00,CLR,,0.00,WeatherDisplay:10.37,2013-02-21 07:36:00,
2013-02-21 01:41:00,68.3,68.3,29.68,ESE,116,8.9,15.0,100,0.00,CLR,,0.00,WeatherDisplay:10.37,2013-02-21 07:41:00,
2013-02-21 01:46:00,68.3,68.3,29.68,SE,137,12.0,18.5,100,0.00,CLR,,0.00,WeatherDisplay:10.37,2013-02-21 07:46:00,
2013-02-21 01:51:00,68.2,68.2,29.68,ESE,104,11.5,20.7,100,0.00,CLR,,0.00,WeatherDisplay:10.37,2013-02-21 07:51:00,
2013-02-21 01:56:00,68.1,68.1,29.67,ESE,106,10.4,16.1,100,0.00,CLR,,0.00,WeatherDisplay:10.37,2013-02-21 07:56:00,
2013-02-21 02:01:00,68.1,68.1,29.67,SE,130,10.1,19.0,100,0.00,CLR,,0.00,WeatherDisplay:10.37,2013-02-21 08:01:00,
2013-02-21 02:06:00,68.2,68.2,29.67,ESE,119,10.6,19.0,100,0.00,CLR,,0.00,WeatherDisplay:10.37,2013-02-21 08:06:00,
2013-02-21 02:11:00,68.2,68.2,29.67,East,93,10.2,18.4,100,0.00,CLR,,0.00,WeatherDisplay:10.37,2013-02-21 08:11:00,
2013-02-21 02:16:00,68.3,68.3,29.67,ESE,117,9.4,16.1,100,0.00,CLR,,0.00,WeatherDisplay:10.37,2013-02-21 08:16:00,
2013-02-21 02:21:00,68.1,68.1,29.67,SSE,147,9.8,17.3,100,0.00,CLR,,0.00,WeatherDisplay:10.37,2013-02-21 08:21:00,
2013-02-21 02:26:00,68.2,68.2,29.67,SE,140,10.9,21.3,100,0.00,CLR,,0.00,WeatherDisplay:10.37,2013-02-21 08:26:00,
2013-02-21 02:31:00,68.3,68.3,29.66,SE,137,10.1,17.3,100,0.00,CLR,,0.00,WeatherDisplay:10.37,2013-02-21 08:31:00,
2013-02-21 02:36:00,68.3,68.3,29.66,SSE,147,10.1,17.3,100,0.00,CLR,,0.00,WeatherDisplay:10.37,2013-02-21 08:36:00,
2013-02-21 02:41:00,68.3,68.3,29.66,SE,134,10.3,19.6,100,0.00,CLR,,0.00,WeatherDisplay:10.37,2013-02-21 08:41:00,
2013-02-21 02:46:00,68.1,68.1,29.66,SSE,150,10.1,18.6,100,0.00,CLR,,0.00,WeatherDisplay:10.37,2013-02-21 08:46:00,
2013-02-21 02:51:00,68.2,68.2,29.65,SSE,147,11.4,18.4,100,0.00,CLR,,0.00,WeatherDisplay:10.37,2013-02-21 08:51:00,
2013-02-21 02:56:00,68.1,68.1,29.65,SE,134,11.2,17.3,100,0.00,CLR,,0.00,WeatherDisplay:10.37,2013-02-21 08:56:00,
2013-02-21 03:01:00,68.0,68.0,29.65,SE,131,11.4,17.3,100,0.00,CLR,,0.00,WeatherDisplay:10.37,2013-02-21 09:01:00,
2013-02-21 03:06:00,68.1,68.1,29.65,ESE,110,11.0,16.1,100,0.00,CLR,,0.00,WeatherDisplay:10.37,2013-02-21 09:06:00,
2013-02-21 03:11:00,68.1,68.1,29.65,SE,126,11.5,19.5,100,0.00,CLR,,0.00,WeatherDisplay:10.37,2013-02-21 09:11:00,
2013-02-21 03:16:00,68.0,68.0,29.65,ESE,120,10.2,17.3,100,0.00,CLR,,0.00,WeatherDisplay:10.37,2013-02-21 09:16:00,
2013-02-21 03:21:00,68.0,68.0,29.65,SE,138,11.6,17.5,100,0.00,CLR,,0.00,WeatherDisplay:10.37,2013-02-21 09:21:00,
2013-02-21 03:26:00,67.9,67.9,29.64,SE,124,11.8,18.8,100,0.00,CLR,,0.00,WeatherDisplay:10.37,2013-02-21 09:26:00,
2013-02-21 03:31:00,67.9,67.9,29.64,SSE,155,10.7,16.5,100,0.00,CLR,,0.00,WeatherDisplay:10.37,2013-02-21 09:31:00,
2013-02-21 03:36:00,67.9,67.9,29.64,SE,138,11.8,17.4,100,0.00,CLR,,0.00,WeatherDisplay:10.37,2013-02-21 09:36:00,
2013-02-21 03:41:00,67.8,67.8,29.64,ESE,104,11.4,16.1,100,0.00,CLR,,0.00,WeatherDisplay:10.37,2013-02-21 09:41:00,
2013-02-21 03:46:00,67.9,67.9,29.64,SE,141,11.9,17.8,100,0.00,CLR,,0.00,WeatherDisplay:10.37,2013-02-21 09:46:00,
2013-02-21 03:51:00,67.9,67.9,29.64,SSE,162,11.9,17.3,100,0.00,CLR,,0.00,WeatherDisplay:10.37,2013-02-21 09:51:00,
2013-02-21 03:56:00,68.0,68.0,29.64,SSE,158,10.8,18.8,100,0.00,CLR,,0.00,WeatherDisplay:10.37,2013-02-21 09:56:00,
2013-02-21 04:01:00,68.0,68.0,29.64,SSE,162,12.8,21.9,100,0.00,CLR,,0.00,WeatherDisplay:10.37,2013-02-21 10:01:00,
2013-02-21 04:06:00,68.0,68.0,29.63,SE,136,12.5,23.0,100,0.00,CLR,,0.00,WeatherDisplay:10.37,2013-02-21 10:06:00,
2013-02-21 04:11:00,68.1,68.1,29.64,SSE,157,13.1,18.4,100,0.00,CLR,,0.00,WeatherDisplay:10.37,2013-02-21 10:11:00,
2013-02-21 04:16:00,68.1,68.1,29.63,SSE,151,12.3,19.7,100,0.00,CLR,,0.00,WeatherDisplay:10.37,2013-02-21 10:16:00,
2013-02-21 04:21:00,68.1,68.1,29.64,SSE,167,12.5,20.5,100,0.00,CLR,,0.00,WeatherDisplay:10.37,2013-02-21 10:21:00,
2013-02-21 04:26:00,68.0,68.0,29.63,SE,144,15.3,21.9,100,0.00,CLR,,0.00,WeatherDisplay:10.37,2013-02-21 10:26:00,
2013-02-21 04:31:00,68.1,68.1,29.63,ESE,106,15.8,24.0,100,0.00,CLR,,0.00,WeatherDisplay:10.37,2013-02-21 10:31:00,
2013-02-21 04:36:00,68.2,68.2,29.63,SSE,148,13.3,20.7,100,0.00,CLR,,0.00,WeatherDisplay:10.37,2013-02-21 10:36:00,
2013-02-21 04:41:00,68.2,68.2,29.63,SE,126,13.8,26.5,100,0.00,CLR,,0.00,WeatherDisplay:10.37,2013-02-21 10:41:00,
2013-02-21 04:46:00,68.3,68.3,29.62,SSE,150,13.8,23.4,100,0.00,CLR,,0.00,WeatherDisplay:10.37,2013-02-21 10:46:00,
2013-02-21 04:51:00,68.3,68.3,29.62,SE,145,15.7,23.0,100,0.00,CLR,,0.00,WeatherDisplay:10.37,2013-02-21 10:51:00,
2013-02-21 04:56:00,68.2,68.2,29.62,South,171,16.7,27.6,100,0.00,,,0.00,WeatherDisplay:10.37,2013-02-21 10:56:00,
2013-02-21 05:01:00,68.1,68.1,29.62,SSE,148,16.1,25.3,100,0.00,,,0.00,WeatherDisplay:10.37,2013-02-21 11:01:00,
2013-02-21 05:06:00,68.1,68.1,29.62,South,171,14.1,23.0,100,0.00,,,0.00,WeatherDisplay:10.37,2013-02-21 11:06:00,
2013-02-21 05:11:00,68.1,68.1,29.62,South,169,16.6,24.3,100,0.00,CLR,,0.00,WeatherDisplay:10.37,2013-02-21 11:11:00,
2013-02-21 05:16:00,68.2,68.2,29.62,SSE,160,15.0,21.9,100,0.00,,,0.00,WeatherDisplay:10.37,2013-02-21 11:16:00,
2013-02-21 05:21:00,68.1,68.1,29.63,SSE,155,15.2,23.0,100,0.00,,,0.00,WeatherDisplay:10.37,2013-02-21 11:21:00,
2013-02-21 05:26:00,68.2,68.2,29.62,East,100,12.9,19.1,100,0.00,,,0.00,WeatherDisplay:10.37,2013-02-21 11:26:00,
2013-02-21 05:32:00,68.2,68.2,29.62,South,186,14.1,23.0,100,0.00,,,0.00,WeatherDisplay:10.37,2013-02-21 11:32:00,
2013-02-21 05:37:00,68.2,68.2,29.62,South,176,17.0,28.7,100,0.00,,,0.00,WeatherDisplay:10.37,2013-02-21 11:37:00,
2013-02-21 05:42:00,68.2,68.2,29.62,SSE,152,17.4,26.5,100,0.00,,,0.00,WeatherDisplay:10.37,2013-02-21 11:42:00,
2013-02-21 05:47:00,68.2,68.2,29.62,SSE,148,17.8,29.8,100,0.00,,,0.00,WeatherDisplay:10.37,2013-02-21 11:47:00,
2013-02-21 05:52:00,68.2,68.2,29.62,South,172,16.6,23.0,100,0.00,,,0.00,WeatherDisplay:10.37,2013-02-21 11:52:00,
2013-02-21 05:57:00,68.3,68.3,29.62,SE,136,20.6,30.3,100,0.00,,,0.00,WeatherDisplay:10.37,2013-02-21 11:57:00,
2013-02-21 06:02:00,68.2,68.2,29.63,SSE,167,15.4,29.9,100,0.00,,,0.00,WeatherDisplay:10.37,2013-02-21 12:02:00,
2013-02-21 06:07:00,68.3,68.3,29.63,SE,124,20.6,30.4,100,0.00,,,0.00,WeatherDisplay:10.37,2013-02-21 12:07:00,
2013-02-21 06:12:00,68.3,68.3,29.63,South,172,16.7,27.1,100,0.00,,,0.00,WeatherDisplay:10.37,2013-02-21 12:12:00,
2013-02-21 06:17:00,68.3,68.3,29.63,SSE,162,16.7,28.8,100,0.00,,,0.00,WeatherDisplay:10.37,2013-02-21 12:17:00,
2013-02-21 06:22:00,68.3,68.3,29.63,SSE,155,19.8,33.4,100,0.00,,,0.00,WeatherDisplay:10.37,2013-02-21 12:22:00,
2013-02-21 06:27:00,68.3,68.3,29.63,SSE,164,19.5,30.3,100,0.00,,,0.00,WeatherDisplay:10.37,2013-02-21 12:27:00,
2013-02-21 06:32:00,68.5,68.5,29.63,South,176,18.3,41.4,100,0.00,,,0.00,WeatherDisplay:10.37,2013-02-21 12:32:00,
2013-02-21 06:37:00,68.5,68.5,29.63,SSE,167,18.6,31.1,100,0.00,,,0.00,WeatherDisplay:10.37,2013-02-21 12:37:00,
2013-02-21 06:42:00,68.5,68.5,29.63,South,172,18.0,31.3,100,0.00,,,0.00,WeatherDisplay:10.37,2013-02-21 12:42:00,
2013-02-21 06:47:00,68.6,68.6,29.63,South,169,17.8,31.1,100,0.00,,,0.00,WeatherDisplay:10.37,2013-02-21 12:47:00,
2013-02-21 06:52:00,68.7,68.7,29.64,SSE,165,19.5,30.3,100,0.00,,,0.00,WeatherDisplay:10.37,2013-02-21 12:52:00,
2013-02-21 06:57:00,68.6,68.6,29.64,South,169,18.7,34.6,100,0.00,,,0.00,WeatherDisplay:10.37,2013-02-21 12:57:00,
2013-02-21 07:02:00,68.4,68.4,29.63,SSE,158,18.6,28.8,100,0.00,,,0.00,WeatherDisplay:10.37,2013-02-21 13:02:00,
2013-02-21 07:07:00,68.4,68.4,29.64,SE,140,16.2,27.4,100,0.00,,,0.00,WeatherDisplay:10.37,2013-02-21 13:07:00,
2013-02-21 07:12:00,68.4,68.4,29.64,South,189,18.4,26.5,100,0.00,,,0.00,WeatherDisplay:10.37,2013-02-21 13:12:00,
2013-02-21 07:17:00,68.4,68.4,29.65,South,181,18.8,31.1,100,0.00,,,0.00,WeatherDisplay:10.37,2013-02-21 13:17:00,
2013-02-21 07:22:00,68.5,68.5,29.65,SSE,157,18.2,26.8,100,0.00,,,0.00,WeatherDisplay:10.37,2013-02-21 13:22:00,
2013-02-21 07:28:00,68.3,68.3,29.65,SSE,158,16.8,24.2,100,0.00,,,0.00,WeatherDisplay:10.37,2013-02-21 13:28:00,
2013-02-21 07:33:00,68.4,68.4,29.65,SSE,164,14.5,25.3,100,0.00,,,0.00,WeatherDisplay:10.37,2013-02-21 13:33:00,
2013-02-21 07:38:00,68.3,68.3,29.65,South,169,17.7,31.8,100,0.00,,,0.00,WeatherDisplay:10.37,2013-02-21 13:38:00,
2013-02-21 07:43:00,68.3,68.3,29.65,SSE,165,13.7,28.8,100,0.00,,,0.00,WeatherDisplay:10.37,2013-02-21 13:43:00,
2013-02-21 07:48:00,68.5,68.5,29.65,SSE,158,17.7,31.7,100,0.00,,,0.00,WeatherDisplay:10.37,2013-02-21 13:48:00,
2013-02-21 07:53:00,68.4,68.4,29.65,South,175,17.2,26.5,100,0.00,,,0.00,WeatherDisplay:10.37,2013-02-21 13:53:00,
2013-02-21 07:58:00,68.4,68.4,29.65,SE,145,19.5,29.2,100,0.00,,,0.00,WeatherDisplay:10.37,2013-02-21 13:58:00,
2013-02-21 08:03:00,68.4,68.4,29.65,SE,145,19.1,31.0,100,0.00,,,0.00,WeatherDisplay:10.37,2013-02-21 14:03:00,
2013-02-21 08:08:00,68.4,68.4,29.65,SSE,151,18.3,33.4,100,0.00,,,0.00,WeatherDisplay:10.37,2013-02-21 14:08:00,
2013-02-21 08:13:00,68.4,68.4,29.66,SE,140,17.7,32.2,100,0.00,,,0.00,WeatherDisplay:10.37,2013-02-21 14:13:00,
2013-02-21 08:18:00,68.4,68.4,29.66,SSE,152,20.1,33.8,100,0.00,,,0.00,WeatherDisplay:10.37,2013-02-21 14:18:00,
2013-02-21 08:23:00,68.4,68.4,29.66,SSE,155,16.6,31.1,100,0.00,,,0.00,WeatherDisplay:10.37,2013-02-21 14:23:00,
2013-02-21 08:28:00,68.6,68.6,29.66,South,178,21.4,33.4,100,0.00,,,0.00,WeatherDisplay:10.37,2013-02-21 14:28:00,
2013-02-21 08:33:00,68.6,68.6,29.66,SSE,167,16.8,27.6,100,0.00,,,0.00,WeatherDisplay:10.37,2013-02-21 14:33:00,
2013-02-21 08:38:00,68.7,68.7,29.66,South,171,16.8,28.8,100,0.00,,,0.00,WeatherDisplay:10.37,2013-02-21 14:38:00,
2013-02-21 08:43:00,68.8,68.8,29.66,SE,134,19.1,31.1,100,0.00,,,0.00,WeatherDisplay:10.37,2013-02-21 14:43:00,
2013-02-21 08:48:00,68.8,68.8,29.67,SSE,164,20.8,27.6,100,0.00,,,0.00,WeatherDisplay:10.37,2013-02-21 14:48:00,
2013-02-21 08:53:00,68.9,68.9,29.67,SSE,168,16.8,25.3,100,0.00,,,0.00,WeatherDisplay:10.37,2013-02-21 14:53:00,
2013-02-21 08:58:00,69.0,69.0,29.68,South,169,15.0,23.0,100,0.00,,,0.00,WeatherDisplay:10.37,2013-02-21 14:58:00,
2013-02-21 09:03:00,68.9,68.9,29.68,SSE,158,15.4,23.0,100,0.00,CLR,,0.00,WeatherDisplay:10.37,2013-02-21 15:03:00,
2013-02-21 09:08:00,68.9,68.9,29.68,South,175,14.5,24.4,100,0.00,,,0.00,WeatherDisplay:10.37,2013-02-21 15:08:00,
2013-02-21 09:13:00,68.8,68.8,29.68,SSE,162,16.9,27.8,100,0.00,,,0.00,WeatherDisplay:10.37,2013-02-21 15:13:00,
2013-02-21 09:18:00,68.8,68.8,29.68,SE,136,15.8,24.2,100,0.00,,,0.00,WeatherDisplay:10.37,2013-02-21 15:18:00,
2013-02-21 09:23:00,68.8,68.8,29.62,South,172,15.2,27.2,100,0.00,,,0.00,WeatherDisplay:10.37,2013-02-21 15:23:00,
2013-02-21 09:28:00,68.8,68.8,29.67,SSW,195,15.5,27.6,100,0.00,,,0.00,WeatherDisplay:10.37,2013-02-21 15:28:00,
2013-02-21 09:33:00,68.8,68.8,29.68,SE,137,17.0,25.4,100,0.00,,,0.00,WeatherDisplay:10.37,2013-02-21 15:33:00,
2013-02-21 09:38:00,68.8,68.8,29.68,South,186,13.8,23.8,100,0.00,CLR,,0.00,WeatherDisplay:10.37,2013-02-21 15:38:00,
2013-02-21 09:43:00,68.8,68.8,29.68,SSE,167,14.1,22.5,100,0.00,CLR,,0.00,WeatherDisplay:10.37,2013-02-21 15:43:00,
2013-02-21 09:48:00,69.0,69.0,29.69,SSE,155,11.3,23.5,100,0.00,CLR,,0.00,WeatherDisplay:10.37,2013-02-21 15:48:00,
2013-02-21 09:53:00,69.2,69.2,29.69,SE,130,11.0,21.9,100,0.00,CLR,,0.00,WeatherDisplay:10.37,2013-02-21 15:53:00,
2013-02-21 09:58:00,69.3,69.3,29.69,South,184,11.9,20.7,100,0.00,CLR,,0.00,WeatherDisplay:10.37,2013-02-21 15:58:00,
2013-02-21 10:03:00,69.6,69.6,29.69,SSE,150,12.6,23.1,100,0.00,CLR,,0.00,WeatherDisplay:10.37,2013-02-21 16:03:00,
2013-02-21 10:09:00,69.8,69.8,29.69,South,191,10.0,19.6,100,0.00,CLR,,0.00,WeatherDisplay:10.37,2013-02-21 16:09:00,
2013-02-21 10:14:00,69.8,69.8,29.69,South,171,12.2,19.6,100,0.00,CLR,,0.00,WeatherDisplay:10.37,2013-02-21 16:14:00,
2013-02-21 10:19:00,69.8,69.8,29.69,SSW,203,13.8,21.1,100,0.00,CLR,,0.00,WeatherDisplay:10.37,2013-02-21 16:19:00,
2013-02-21 10:24:00,70.0,70.0,29.69,South,171,12.6,24.2,100,0.00,CLR,,0.00,WeatherDisplay:10.37,2013-02-21 16:24:00,
2013-02-21 10:29:00,70.0,70.0,29.69,South,175,12.1,20.5,100,0.00,CLR,,0.00,WeatherDisplay:10.37,2013-02-21 16:29:00,
2013-02-21 10:34:00,70.0,70.0,29.69,South,181,13.9,23.2,100,0.00,CLR,,0.00,WeatherDisplay:10.37,2013-02-21 16:34:00,
2013-02-21 10:39:00,69.9,69.9,29.69,South,179,12.7,17.3,100,0.00,CLR,,0.00,WeatherDisplay:10.37,2013-02-21 16:39:00,
2013-02-21 10:44:00,70.1,70.1,29.69,SSE,167,9.2,17.3,100,0.00,CLR,,0.00,WeatherDisplay:10.37,2013-02-21 16:44:00,
2013-02-21 10:49:00,70.1,70.1,29.70,SSW,203,7.9,15.0,100,0.00,CLR,,0.00,WeatherDisplay:10.37,2013-02-21 16:49:00,
2013-02-21 10:54:00,70.3,70.3,29.73,SW,226,9.1,15.0,100,0.00,CLR,,0.00,WeatherDisplay:10.37,2013-02-21 16:54:00,
2013-02-21 10:59:00,70.6,70.6,29.74,WSW,244,8.3,18.4,100,0.00,CLR,,0.00,WeatherDisplay:10.37,2013-02-21 16:59:00,
2013-02-21 11:04:00,70.9,70.6,29.75,SW,233,9.5,19.0,99,0.00,CLR,,0.00,WeatherDisplay:10.37,2013-02-21 17:04:00,
2013-02-21 11:09:00,71.1,70.8,29.74,South,185,5.9,19.0,99,0.00,CLR,,0.00,WeatherDisplay:10.37,2013-02-21 17:09:00,
2013-02-21 11:14:00,71.5,71.2,29.74,SW,217,5.9,8.1,99,0.00,CLR,,0.00,WeatherDisplay:10.37,2013-02-21 17:14:00,
2013-02-21 11:19:00,71.6,71.3,29.75,South,186,5.4,9.2,99,0.00,CLR,,0.00,WeatherDisplay:10.37,2013-02-21 17:19:00,
2013-02-21 11:24:00,71.6,71.0,29.74,SW,226,4.2,9.2,98,0.00,CLR,,0.00,WeatherDisplay:10.37,2013-02-21 17:24:00,
2013-02-21 11:29:00,71.5,70.9,29.74,South,175,6.6,10.4,98,0.00,CLR,,0.00,WeatherDisplay:10.37,2013-02-21 17:29:00,
2013-02-21 11:34:00,71.4,70.8,29.73,SSW,199,8.0,10.8,98,0.00,CLR,,0.00,WeatherDisplay:10.37,2013-02-21 17:34:00,
2013-02-21 11:39:00,71.1,70.5,29.73,South,182,7.3,11.5,98,0.00,CLR,,0.00,WeatherDisplay:10.37,2013-02-21 17:39:00,
2013-02-21 11:44:00,71.1,70.5,29.73,SSE,152,5.6,9.3,98,0.00,CLR,,0.00,WeatherDisplay:10.37,2013-02-21 17:44:00,
2013-02-21 11:49:00,70.9,70.3,29.73,SSE,152,6.1,9.3,98,0.00,CLR,,0.00,WeatherDisplay:10.37,2013-02-21 17:49:00,
2013-02-21 11:54:00,70.9,70.3,29.73,SSE,162,5.3,9.3,98,0.00,CLR,,0.00,WeatherDisplay:10.37,2013-02-21 17:54:00,
2013-02-21 11:59:00,70.8,70.2,29.73,SE,134,3.7,8.1,98,0.00,CLR,,0.00,WeatherDisplay:10.37,2013-02-21 17:59:00,
2013-02-21 12:04:00,70.9,70.3,29.73,South,175,5.1,9.2,98,0.00,CLR,,0.00,WeatherDisplay:10.37,2013-02-21 18:04:00,
2013-02-21 12:09:00,71.0,70.4,29.73,South,171,4.9,6.9,98,0.00,CLR,,0.00,WeatherDisplay:10.37,2013-02-21 18:09:00,
2013-02-21 12:14:00,71.3,70.7,29.73,South,169,4.4,6.9,98,0.00,CLR,,0.00,WeatherDisplay:10.37,2013-02-21 18:14:00,
2013-02-21 12:19:00,71.4,70.8,29.73,South,191,4.4,6.9,98,0.00,CLR,,0.00,WeatherDisplay:10.37,2013-02-21 18:19:00,
2013-02-21 12:24:00,71.6,71.0,29.73,South,182,4.0,6.5,98,0.00,CLR,,0.00,WeatherDisplay:10.37,2013-02-21 18:24:00,
2013-02-21 12:29:00,71.9,71.3,29.73,South,178,3.9,6.0,98,0.00,CLR,,0.00,WeatherDisplay:10.37,2013-02-21 18:29:00,
2013-02-21 12:34:00,72.4,71.8,29.72,SSW,196,4.9,6.5,98,0.00,CLR,,0.00,WeatherDisplay:10.37,2013-02-21 18:34:00,
2013-02-21 12:39:00,72.8,71.9,29.72,SSW,195,4.1,6.8,97,0.00,CLR,,0.00,WeatherDisplay:10.37,2013-02-21 18:39:00,
2013-02-21 12:44:00,73.2,72.3,29.72,South,182,4.4,5.8,97,0.00,CLR,,0.00,WeatherDisplay:10.37,2013-02-21 18:44:00,
2013-02-21 12:49:00,73.4,72.2,29.72,SSW,192,3.4,6.9,96,0.00,CLR,,0.00,WeatherDisplay:10.37,2013-02-21 18:49:00,
2013-02-21 12:55:00,73.6,72.4,29.72,SSE,158,6.1,6.9,96,0.00,CLR,,0.00,WeatherDisplay:10.37,2013-02-21 18:55:00,
2013-02-21 13:00:00,73.7,72.2,29.71,SSE,157,4.0,4.6,95,0.00,CLR,,0.00,WeatherDisplay:10.37,2013-02-21 19:00:00,
2013-02-21 13:05:00,73.6,72.1,29.71,South,189,4.0,4.7,95,0.00,CLR,,0.00,WeatherDisplay:10.37,2013-02-21 19:05:00,
2013-02-21 13:10:00,73.7,72.2,29.71,SSE,160,3.4,6.3,95,0.00,CLR,,0.00,WeatherDisplay:10.37,2013-02-21 19:10:00,
2013-02-21 13:15:00,73.6,71.8,29.71,SSE,157,5.2,6.9,94,0.00,CLR,,0.00,WeatherDisplay:10.37,2013-02-21 19:15:00,
2013-02-21 13:20:00,73.4,71.6,29.71,SE,143,3.4,6.9,94,0.00,CLR,,0.00,WeatherDisplay:10.37,2013-02-21 19:20:00,
2013-02-21 13:25:00,73.5,71.7,29.70,SE,145,3.8,6.9,94,0.00,CLR,,0.00,WeatherDisplay:10.37,2013-02-21 19:25:00,
2013-02-21 13:30:00,73.4,71.6,29.70,SSE,160,4.8,8.1,94,0.00,CLR,,0.00,WeatherDisplay:10.37,2013-02-21 19:30:00,
2013-02-21 13:35:00,73.4,71.6,29.70,SSE,168,2.2,6.9,94,0.00,CLR,,0.00,WeatherDisplay:10.37,2013-02-21 19:35:00,
2013-02-21 13:40:00,73.4,71.6,29.70,South,186,3.1,5.9,94,0.00,CLR,,0.00,WeatherDisplay:10.37,2013-02-21 19:40:00,
2013-02-21 13:45:00,73.3,71.2,29.70,SSE,164,4.0,8.1,93,0.00,CLR,,0.00,WeatherDisplay:10.37,2013-02-21 19:45:00,
2013-02-21 13:50:00,73.3,71.5,29.69,South,171,3.5,6.9,94,0.00,CLR,,0.00,WeatherDisplay:10.37,2013-02-21 19:50:00,
2013-02-21 13:55:00,73.1,71.3,29.69,SSE,164,3.8,7.3,94,0.00,CLR,,0.00,WeatherDisplay:10.37,2013-02-21 19:55:00,
2013-02-21 14:00:00,73.2,71.4,29.69,SSE,150,4.5,8.3,94,0.00,CLR,,0.00,WeatherDisplay:10.37,2013-02-21 20:00:00,
2013-02-21 14:06:00,73.4,71.6,29.69,SSE,162,2.9,4.6,94,0.00,CLR,,0.00,WeatherDisplay:10.37,2013-02-21 20:06:00,
2013-02-21 14:11:00,73.6,71.8,29.69,SSE,162,4.2,5.8,94,0.00,CLR,,0.00,WeatherDisplay:10.37,2013-02-21 20:11:00,
2013-02-21 14:16:00,73.9,71.7,29.69,SE,144,1.7,2.4,93,0.00,CLR,,0.00,WeatherDisplay:10.37,2013-02-21 20:16:00,
2013-02-21 14:21:00,74.3,71.8,29.69,SE,136,3.6,4.6,92,0.00,CLR,,0.00,WeatherDisplay:10.37,2013-02-21 20:21:00,
2013-02-21 14:26:00,74.5,71.7,29.69,SE,127,4.3,5.8,91,0.00,CLR,,0.00,WeatherDisplay:10.37,2013-02-21 20:26:00,
2013-02-21 14:31:00,74.8,72.0,29.69,East,93,4.6,5.8,91,0.00,CLR,,0.00,WeatherDisplay:10.37,2013-02-21 20:31:00,
2013-02-21 14:36:00,74.9,71.8,29.69,SE,130,2.7,4.6,90,0.00,CLR,,0.00,WeatherDisplay:10.37,2013-02-21 20:36:00,
2013-02-21 14:41:00,74.7,71.6,29.69,SE,141,5.4,8.1,90,0.00,CLR,,0.00,WeatherDisplay:10.37,2013-02-21 20:41:00,
2013-02-21 14:46:00,74.7,71.6,29.69,SE,127,5.2,8.1,90,0.00,CLR,,0.00,WeatherDisplay:10.37,2013-02-21 20:46:00,
2013-02-21 14:51:00,75.0,71.5,29.69,ESE,123,3.1,5.0,89,0.00,CLR,,0.00,WeatherDisplay:10.37,2013-02-21 20:51:00,
2013-02-21 14:56:00,75.1,71.6,29.69,SSE,151,3.7,5.0,89,0.00,CLR,,0.00,WeatherDisplay:10.37,2013-02-21 20:56:00,
2013-02-21 15:01:00,75.0,71.2,29.69,SSE,165,2.1,5.8,88,0.00,CLR,,0.00,WeatherDisplay:10.37,2013-02-21 21:01:00,
2013-02-21 15:06:00,74.8,71.0,29.69,SSE,168,4.5,6.2,88,0.00,CLR,,0.00,WeatherDisplay:10.37,2013-02-21 21:06:00,
2013-02-21 15:11:00,74.3,70.8,29.69,ESE,121,3.5,7.5,89,0.00,CLR,,0.00,WeatherDisplay:10.37,2013-02-21 21:11:00,
2013-02-21 15:16:00,74.5,71.4,29.69,ESE,123,2.0,5.8,90,0.00,CLR,,0.00,WeatherDisplay:10.37,2013-02-21 21:16:00,
2013-02-21 15:21:00,75.0,71.5,29.69,ESE,116,2.7,4.6,89,0.00,CLR,,0.00,WeatherDisplay:10.37,2013-02-21 21:21:00,
2013-02-21 15:26:00,75.1,71.3,29.69,SSE,154,3.4,4.6,88,0.00,CLR,,0.00,WeatherDisplay:10.37,2013-02-21 21:26:00,
2013-02-21 15:31:00,74.9,71.1,29.69,SSE,157,4.2,5.8,88,0.00,CLR,,0.00,WeatherDisplay:10.37,2013-02-21 21:31:00,
2013-02-21 15:36:00,74.9,71.1,29.69,SE,133,2.9,5.8,88,0.00,CLR,,0.00,WeatherDisplay:10.37,2013-02-21 21:36:00,
2013-02-21 15:41:00,75.1,71.3,29.69,ESE,109,4.2,6.9,88,0.00,CLR,,0.00,WeatherDisplay:10.37,2013-02-21 21:41:00,
2013-02-21 15:46:00,75.4,71.3,29.69,ESE,121,2.5,5.8,87,0.00,CLR,,0.00,WeatherDisplay:10.37,2013-02-21 21:46:00,
2013-02-21 15:51:00,75.7,71.6,29.69,SE,145,3.8,8.2,87,0.00,CLR,,0.00,WeatherDisplay:10.37,2013-02-21 21:51:00,
2013-02-21 15:56:00,75.7,71.2,29.69,ESE,102,3.9,6.9,86,0.00,CLR,,0.00,WeatherDisplay:10.37,2013-02-21 21:56:00,
2013-02-21 16:01:00,75.8,71.3,29.69,SE,131,4.2,4.6,86,0.00,CLR,,0.00,WeatherDisplay:10.37,2013-02-21 22:01:00,
2013-02-21 16:06:00,75.9,71.4,29.69,ESE,116,2.6,5.8,86,0.00,CLR,,0.00,WeatherDisplay:10.37,2013-02-21 22:06:00,
2013-02-21 16:11:00,76.0,71.5,29.70,NE,55,4.9,7.0,86,0.00,CLR,,0.00,WeatherDisplay:10.37,2013-02-21 22:11:00,
2013-02-21 16:16:00,75.3,69.1,29.70,NW,311,11.2,13.8,81,0.00,CLR,,0.00,WeatherDisplay:10.37,2013-02-21 22:16:00,
2013-02-21 16:21:00,75.1,63.8,29.71,NW,312,9.6,13.8,68,0.00,CLR,,0.00,WeatherDisplay:10.37,2013-02-21 22:21:00,
2013-02-21 16:26:00,75.5,62.5,29.71,NNW,337,11.5,15.6,64,0.00,CLR,,0.00,WeatherDisplay:10.37,2013-02-21 22:26:00,
2013-02-21 16:31:00,75.7,60.8,29.70,NW,316,9.5,19.6,60,0.00,CLR,,0.00,WeatherDisplay:10.37,2013-02-21 22:31:00,
2013-02-21 16:36:00,75.7,58.9,29.71,NW,318,11.8,18.5,56,0.00,CLR,,0.00,WeatherDisplay:10.37,2013-02-21 22:36:00,
2013-02-21 16:41:00,75.7,58.4,29.71,North,356,10.6,16.5,55,0.00,CLR,,0.00,WeatherDisplay:10.37,2013-02-21 22:41:00,
2013-02-21 16:46:00,75.6,57.8,29.71,NNW,335,10.6,16.4,54,0.00,CLR,,0.00,WeatherDisplay:10.37,2013-02-21 22:46:00,
2013-02-21 16:51:00,75.5,57.2,29.71,NNW,328,8.9,15.4,53,0.00,CLR,,0.00,WeatherDisplay:10.37,2013-02-21 22:51:00,
2013-02-21 16:56:00,75.3,56.5,29.71,NNW,332,12.5,15.0,52,0.00,CLR,,0.00,WeatherDisplay:10.37,2013-02-21 22:56:00,
2013-02-21 17:01:00,75.1,56.3,29.71,NW,322,9.0,16.1,52,0.00,CLR,,0.00,WeatherDisplay:10.37,2013-02-21 23:01:00,
2013-02-21 17:06:00,75.0,55.6,29.72,NNW,344,11.1,16.1,51,0.00,CLR,,0.00,WeatherDisplay:10.37,2013-02-21 23:06:00,
2013-02-21 17:11:00,74.8,55.5,29.71,NNW,344,10.3,17.3,51,0.00,CLR,,0.00,WeatherDisplay:10.37,2013-02-21 23:11:00,
2013-02-21 17:16:00,74.7,55.9,29.71,WNW,299,8.5,15.5,52,0.00,CLR,,0.00,WeatherDisplay:10.37,2013-02-21 23:16:00,
2013-02-21 17:21:00,74.5,55.7,29.72,NW,320,9.9,17.3,52,0.00,CLR,,0.00,WeatherDisplay:10.37,2013-02-21 23:21:00,
2013-02-21 17:26:00,74.2,55.4,29.72,NW,318,10.9,16.5,52,0.00,CLR,,0.00,WeatherDisplay:10.37,2013-02-21 23:26:00,
2013-02-21 17:31:00,74.0,55.8,29.73,NNW,347,9.7,15.0,53,0.00,CLR,,0.00,WeatherDisplay:10.37,2013-02-21 23:31:00,
2013-02-21 17:36:00,73.8,55.6,29.73,North,0,10.2,13.8,53,0.00,CLR,,0.00,WeatherDisplay:10.37,2013-02-21 23:36:00,
2013-02-21 17:41:00,73.6,55.4,29.73,NNW,333,7.8,13.8,53,0.00,CLR,,0.00,WeatherDisplay:10.37,2013-02-21 23:41:00,
2013-02-21 17:46:00,73.5,55.8,29.73,NW,305,10.6,16.2,54,0.00,CLR,,0.00,WeatherDisplay:10.37,2013-02-21 23:46:00,
2013-02-21 17:51:00,73.3,55.1,29.73,NNW,333,7.0,11.5,53,0.00,CLR,,0.00,WeatherDisplay:10.37,2013-02-21 23:51:00,
2013-02-21 17:56:00,73.1,55.5,29.74,North,4,8.6,11.5,54,0.00,CLR,,0.00,WeatherDisplay:10.37,2013-02-21 23:56:00,
2013-02-21 18:01:00,73.0,55.4,29.75,North,352,7.4,11.5,54,0.00,CLR,,0.00,WeatherDisplay:10.37,2013-02-22 00:01:00,
2013-02-21 18:06:00,72.7,55.6,29.75,North,1,6.3,9.2,55,0.00,CLR,,0.00,WeatherDisplay:10.37,2013-02-22 00:06:00,
2013-02-21 18:11:00,72.6,56.0,29.75,NNE,31,5.1,9.3,56,0.00,CLR,,0.00,WeatherDisplay:10.37,2013-02-22 00:11:00,
2013-02-21 18:16:00,72.3,55.7,29.75,NNW,346,7.5,12.1,56,0.00,CLR,,0.00,WeatherDisplay:10.37,2013-02-22 00:16:00,
2013-02-21 18:21:00,72.1,55.5,29.75,North,354,6.0,11.5,56,0.00,CLR,,0.00,WeatherDisplay:10.37,2013-02-22 00:21:00,
2013-02-21 18:26:00,71.8,55.3,29.75,North,356,6.0,9.2,56,0.00,CLR,,0.00,WeatherDisplay:10.37,2013-02-22 00:26:00,
2013-02-21 18:31:00,71.5,55.0,29.76,NNW,342,6.6,9.4,56,0.00,CLR,,0.00,WeatherDisplay:10.37,2013-02-22 00:31:00,
2013-02-21 18:36:00,71.4,54.9,29.76,North,360,5.6,10.4,56,0.00,CLR,,0.00,WeatherDisplay:10.37,2013-02-22 00:36:00,
2013-02-21 18:41:00,71.1,54.6,29.76,North,6,6.6,11.5,56,0.00,CLR,,0.00,WeatherDisplay:10.37,2013-02-22 00:41:00,
2013-02-21 18:46:00,70.9,53.9,29.77,NE,40,4.9,9.2,55,0.00,CLR,,0.00,WeatherDisplay:10.37,2013-02-22 00:46:00,
2013-02-21 18:51:00,70.8,53.8,29.77,NNW,335,5.0,8.1,55,0.00,CLR,,0.00,WeatherDisplay:10.37,2013-02-22 00:51:00,
2013-02-21 18:56:00,70.7,53.7,29.77,North,3,6.0,8.5,55,0.00,CLR,,0.00,WeatherDisplay:10.37,2013-02-22 00:56:00,
2013-02-21 19:01:00,70.5,53.6,29.77,North,6,4.0,9.2,55,0.00,CLR,,0.00,WeatherDisplay:10.37,2013-02-22 01:01:00,
2013-02-21 19:06:00,70.5,54.0,29.77,NNW,337,5.2,9.2,56,0.00,CLR,,0.00,WeatherDisplay:10.37,2013-02-22 01:06:00,
2013-02-21 19:11:00,70.3,54.3,29.78,NNE,21,4.8,6.9,57,0.00,CLR,,0.00,WeatherDisplay:10.37,2013-02-22 01:11:00,
2013-02-21 19:16:00,70.2,54.2,29.78,NE,37,6.8,10.4,57,0.00,CLR,,0.00,WeatherDisplay:10.37,2013-02-22 01:16:00,
2013-02-21 19:21:00,70.0,54.5,29.77,ENE,64,7.0,10.4,58,0.00,CLR,,0.00,WeatherDisplay:10.37,2013-02-22 01:21:00,
2013-02-21 19:26:00,69.9,55.4,29.77,NNE,20,5.3,8.1,60,0.00,CLR,,0.00,WeatherDisplay:10.37,2013-02-22 01:26:00,
2013-02-21 19:31:00,69.9,55.4,29.78,NE,55,4.9,8.1,60,0.00,CLR,,0.00,WeatherDisplay:10.37,2013-02-22 01:31:00,
2013-02-21 19:36:00,70.1,56.0,29.78,North,357,4.2,8.1,61,0.00,CLR,,0.00,WeatherDisplay:10.37,2013-02-22 01:36:00,
2013-02-21 19:41:00,70.3,56.2,29.78,NNE,20,5.8,9.2,61,0.00,CLR,,0.00,WeatherDisplay:10.37,2013-02-22 01:41:00,
2013-02-21 19:46:00,70.3,56.2,29.79,NNE,17,6.9,8.3,61,0.00,CLR,,0.00,WeatherDisplay:10.37,2013-02-22 01:46:00,
2013-02-21 19:51:00,70.3,57.1,29.79,NNE,28,5.4,8.1,63,0.00,CLR,,0.00,WeatherDisplay:10.37,2013-02-22 01:51:00,
2013-02-21 19:56:00,70.0,56.8,29.79,NE,41,8.2,11.7,63,0.00,CLR,,0.00,WeatherDisplay:10.37,2013-02-22 01:56:00,
2013-02-21 20:02:00,69.9,57.2,29.79,ENE,59,8.6,11.5,64,0.00,CLR,,0.00,WeatherDisplay:10.37,2013-02-22 02:02:00,
2013-02-21 20:07:00,69.7,57.4,29.79,NE,56,8.1,12.7,65,0.00,CLR,,0.00,WeatherDisplay:10.37,2013-02-22 02:07:00,
2013-02-21 20:12:00,69.5,58.1,29.79,NE,51,8.8,15.0,67,0.00,CLR,,0.00,WeatherDisplay:10.37,2013-02-22 02:12:00,
2013-02-21 20:17:00,69.3,58.3,29.79,NE,35,9.0,12.7,68,0.00,CLR,,0.00,WeatherDisplay:10.37,2013-02-22 02:17:00,
2013-02-21 20:22:00,69.1,58.1,29.80,ENE,58,8.2,10.4,68,0.00,CLR,,0.00,WeatherDisplay:10.37,2013-02-22 02:22:00,
2013-02-21 20:27:00,68.9,57.9,29.80,NE,37,8.7,10.8,68,0.00,CLR,,0.00,WeatherDisplay:10.37,2013-02-22 02:27:00,
2013-02-21 20:32:00,68.8,57.8,29.80,ENE,59,9.5,12.7,68,0.00,CLR,,0.00,WeatherDisplay:10.37,2013-02-22 02:32:00,
2013-02-21 20:37:00,68.7,58.1,29.80,NE,35,8.4,11.9,69,0.00,CLR,,0.00,WeatherDisplay:10.37,2013-02-22 02:37:00,
2013-02-21 20:42:00,68.7,58.1,29.80,ENE,59,8.2,12.7,69,0.00,CLR,,0.00,WeatherDisplay:10.37,2013-02-22 02:42:00,
2013-02-21 20:47:00,68.6,58.4,29.80,ENE,64,7.7,10.4,70,0.00,CLR,,0.00,WeatherDisplay:10.37,2013-02-22 02:47:00,
2013-02-21 20:52:00,68.4,58.6,29.80,ENE,61,8.5,10.7,71,0.00,CLR,,0.00,WeatherDisplay:10.37,2013-02-22 02:52:00,
2013-02-21 20:57:00,68.3,58.9,29.80,ENE,66,6.8,10.4,72,0.00,CLR,,0.00,WeatherDisplay:10.37,2013-02-22 02:57:00,
2013-02-21 21:02:00,68.3,59.3,29.81,ENE,66,7.4,10.4,73,0.00,CLR,,0.00,WeatherDisplay:10.37,2013-02-22 03:02:00,
2013-02-21 21:07:00,68.2,59.6,29.81,ENE,71,8.0,10.4,74,0.00,CLR,,0.00,WeatherDisplay:10.37,2013-02-22 03:07:00,
2013-02-21 21:12:00,68.2,59.6,29.81,NE,49,6.8,11.5,74,0.00,CLR,,0.00,WeatherDisplay:10.37,2013-02-22 03:12:00,
2013-02-21 21:17:00,68.0,59.4,29.81,ENE,72,7.5,9.2,74,0.00,CLR,,0.00,WeatherDisplay:10.37,2013-02-22 03:17:00,
2013-02-21 21:22:00,67.9,59.3,29.82,East,80,7.0,9.2,74,0.00,CLR,,0.00,WeatherDisplay:10.37,2013-02-22 03:22:00,
2013-02-21 21:27:00,67.8,59.2,29.82,ENE,75,7.8,9.8,74,0.00,CLR,,0.00,WeatherDisplay:10.37,2013-02-22 03:27:00,
2013-02-21 21:32:00,67.7,59.1,29.82,NE,56,9.5,11.5,74,0.00,CLR,,0.00,WeatherDisplay:10.37,2013-02-22 03:32:00,
2013-02-21 21:37:00,67.5,58.9,29.82,East,83,9.4,11.5,74,0.00,CLR,,0.00,WeatherDisplay:10.37,2013-02-22 03:37:00,
2013-02-21 21:42:00,67.4,58.8,29.82,ENE,62,7.2,11.7,74,0.00,CLR,,0.00,WeatherDisplay:10.37,2013-02-22 03:42:00,
2013-02-21 21:47:00,67.4,58.8,29.82,NE,44,7.5,9.2,74,0.00,CLR,,0.00,WeatherDisplay:10.37,2013-02-22 03:47:00,
2013-02-21 21:52:00,67.3,58.3,29.82,ENE,61,9.6,14.1,73,0.00,CLR,,0.00,WeatherDisplay:10.37,2013-02-22 03:52:00,
2013-02-21 21:57:00,67.3,58.3,29.82,ENE,59,10.9,13.8,73,0.00,CLR,,0.00,WeatherDisplay:10.37,2013-02-22 03:57:00,
2013-02-21 22:02:00,67.3,58.0,29.83,ENE,58,9.5,13.8,72,0.00,CLR,,0.00,WeatherDisplay:10.37,2013-02-22 04:02:00,
2013-02-21 22:07:00,67.4,57.7,29.83,NE,56,9.3,16.1,71,0.00,CLR,,0.00,WeatherDisplay:10.37,2013-02-22 04:07:00,
2013-02-21 22:12:00,67.4,57.7,29.81,ENE,62,10.2,13.8,71,0.00,CLR,,0.00,WeatherDisplay:10.37,2013-02-22 04:12:00,
2013-02-21 22:17:00,67.4,57.7,29.82,ENE,69,9.2,12.7,71,0.00,CLR,,0.00,WeatherDisplay:10.37,2013-02-22 04:17:00,
2013-02-21 22:22:00,67.4,58.1,29.82,ENE,73,8.9,10.5,72,0.00,CLR,,0.00,WeatherDisplay:10.37,2013-02-22 04:22:00,
2013-02-21 22:27:00,67.4,58.1,29.82,ENE,69,9.8,13.8,72,0.00,CLR,,0.00,WeatherDisplay:10.37,2013-02-22 04:27:00,
2013-02-21 22:32:00,67.2,57.9,29.82,ENE,62,9.4,13.8,72,0.00,CLR,,0.00,WeatherDisplay:10.37,2013-02-22 04:32:00,
2013-02-21 22:37:00,67.2,58.2,29.83,East,96,7.9,11.0,73,0.00,CLR,,0.00,WeatherDisplay:10.37,2013-02-22 04:37:00,
2013-02-21 22:42:00,67.2,58.2,29.83,East,83,7.9,11.5,73,0.00,CLR,,0.00,WeatherDisplay:10.37,2013-02-22 04:42:00,
2013-02-21 22:47:00,67.1,58.2,29.82,NE,52,8.8,13.9,73,0.00,CLR,,0.00,WeatherDisplay:10.37,2013-02-22 04:47:00,
2013-02-21 22:52:00,67.0,58.1,29.82,ENE,65,7.4,10.6,73,0.00,CLR,,0.00,WeatherDisplay:10.37,2013-02-22 04:52:00,
2013-02-21 22:57:00,66.9,58.3,29.82,NE,37,8.5,11.5,74,0.00,CLR,,0.00,WeatherDisplay:10.37,2013-02-22 04:57:00,
2013-02-21 23:00:00,66.9,58.0,29.82,ENE,62,8.7,12.7,73,0.00,CLR,,0.00,WeatherDisplay:10.37,2013-02-22 05:00:00,
2013-02-21 23:01:00,66.8,57.9,29.82,NE,37,8.4,11.7,73,0.00,CLR,,0.00,WeatherDisplay:10.37,2013-02-22 05:01:00,
2013-02-21 23:06:00,67.0,58.4,29.82,NNE,25,5.3,9.2,74,0.00,CLR,,0.00,WeatherDisplay:10.37,2013-02-22 05:06:00,
2013-02-21 23:11:00,66.9,58.3,29.82,NE,51,7.7,11.5,74,0.00,CLR,,0.00,WeatherDisplay:10.37,2013-02-22 05:11:00,
2013-02-21 23:16:00,66.8,58.2,29.82,NE,47,7.8,10.1,74,0.00,CLR,,0.00,WeatherDisplay:10.37,2013-02-22 05:16:00,
2013-02-21 23:18:00,66.9,58.3,29.82,NNE,18,7.5,10.4,74,0.00,CLR,,0.00,WeatherDisplay:10.37,2013-02-22 05:18:00,
2013-02-21 23:20:00,66.8,58.2,29.82,ENE,73,7.3,10.4,74,0.00,CLR,,0.00,WeatherDisplay:10.37,2013-02-22 05:20:00,
2013-02-21 23:25:00,66.8,58.2,29.82,ENE,75,8.0,11.5,74,0.00,CLR,,0.00,WeatherDisplay:10.37,2013-02-22 05:25:00,
2013-02-21 23:30:00,66.8,58.6,29.82,NE,40,7.8,10.4,75,0.00,CLR,,0.00,WeatherDisplay:10.37,2013-02-22 05:30:00,
2013-02-21 23:35:00,66.7,58.5,29.82,ENE,61,8.7,11.5,75,0.00,CLR,,0.00,WeatherDisplay:10.37,2013-02-22 05:35:00,
2013-02-21 23:40:00,66.7,58.1,29.82,NE,44,8.7,11.5,74,0.00,CLR,,0.00,WeatherDisplay:10.37,2013-02-22 05:40:00,
2013-02-21 23:45:00,66.7,58.1,29.82,ENE,61,8.4,10.4,74,0.00,CLR,,0.00,WeatherDisplay:10.37,2013-02-22 05:45:00,
2013-02-21 23:50:00,66.7,58.1,29.83,ENE,61,7.9,10.4,74,0.00,CLR,,0.00,WeatherDisplay:10.37,2013-02-22 05:50:00,
2013-02-21 23:55:00,66.8,58.2,29.82,ENE,61,8.8,11.5,74,0.00,CLR,,0.00,WeatherDisplay:10.37,2013-02-22 05:55:00,